Time;durP1;ratioP1;P1;durP2;ratioP2;P2;SDS_P1;SDS_P2;PMS_P1;PMS_P2;Temp;Humidity;BMP_temperature;BMP_pressure;BME280_temperature;BME280_humidity;BME280_pressure;Samples;Min_cycle;Max_cycle;Signal;HPM_P1;HPM_P2
2023/12/16 00:28:39;;;;;;;;;;;8.20;99.90;;;;;;2601800;46;20093;-71
2023/12/16 00:31:09;;;;;;;;;;;8.00;99.90;;;;;;2605065;54;19939;-71
2023/12/16 00:33:39;;;;;;;;;;;8.00;99.90;;;;;;2616742;54;20073;-71
2023/12/16 00:36:09;;;;;;;;;;;8.00;99.90;;;;;;2614834;54;19989;-70
2023/12/16 00:38:39;;;;;;;;;;;8.10;99.90;;;;;;2610466;39;20268;-71
2023/12/16 00:41:08;;;;;;;;;;;8.00;99.90;;;;;;2611780;54;19958;-71
2023/12/16 00:43:41;;;;;;;;;;;8.10;99.90;;;;;;2612980;54;19939;-71
2023/12/16 00:46:10;;;;;;;;;;;8.10;99.90;;;;;;2616944;47;19939;-71
2023/12/16 00:48:40;;;;;;;;;;;8.00;99.90;;;;;;2617633;50;19939;-70
2023/12/16 00:51:10;;;;;;;;;;;8.10;99.90;;;;;;2616972;54;19954;-71
2023/12/16 00:53:40;;;;;;;;;;;8.10;99.90;;;;;;2616349;54;19959;-70
2023/12/16 00:56:10;;;;;;;;;;;8.10;99.90;;;;;;2617202;39;20319;-70
2023/12/16 00:58:42;;;;;;;;;;;8.10;99.90;;;;;;2616870;54;20461;-71
2023/12/16 01:01:15;;;;;;;;;;;8.10;99.90;;;;;;2618582;54;19954;-72
2023/12/16 01:03:45;;;;;;;;;;;8.10;99.90;;;;;;2618958;54;19951;-72
2023/12/16 01:06:15;;;;;;;;;;;8.10;99.90;;;;;;2617696;39;20348;-70
2023/12/16 01:08:44;;;;;;;;;;;8.10;99.90;;;;;;2617615;54;19939;-70
2023/12/16 01:11:14;;;;;;;;;;;8.10;99.90;;;;;;2616369;54;19939;-71
2023/12/16 01:13:46;;;;;;;;;;;8.00;99.90;;;;;;2616007;54;19943;-71
2023/12/16 01:16:16;;;;;;;;;;;8.10;99.90;;;;;;2617574;39;20009;-72
2023/12/16 01:18:45;;;;;;;;;;;8.00;99.90;;;;;;2616617;54;20972;-70
2023/12/16 01:21:17;;;;;;;;;;;8.00;99.90;;;;;;2616552;39;20318;-71
2023/12/16 01:23:46;;;;;;;;;;;6.80;99.90;;;;;;2614996;54;19947;-71
2023/12/16 01:26:16;;;;;;;;;;;8.00;99.90;;;;;;2616274;54;19986;-72
2023/12/16 01:28:48;;;;;;;;;;;8.00;99.90;;;;;;2616535;54;19947;-71
2023/12/16 01:31:18;;;;;;;;;;;8.00;99.90;;;;;;2616983;47;19945;-70
2023/12/16 01:33:48;;;;;;;;;;;8.00;99.90;;;;;;2618373;54;19939;-72
2023/12/16 01:36:19;;;;;;;;;;;8.00;99.90;;;;;;2616783;54;20468;-71
2023/12/16 01:38:49;;;;;;;;;;;8.00;99.90;;;;;;2616234;47;19954;-71
2023/12/16 01:41:19;;;;;;;;;;;8.10;99.90;;;;;;2615521;47;20417;-70
2023/12/16 01:43:51;;;;;;;;;;;8.00;99.90;;;;;;2615809;54;19939;-71
2023/12/16 01:46:21;;;;;;;;;;;8.10;99.90;;;;;;2616409;47;19938;-72
2023/12/16 01:48:50;;;;;;;;;;;8.00;99.90;;;;;;2617025;47;20545;-71
2023/12/16 01:51:20;;;;;;;;;;;8.00;99.90;;;;;;2616282;54;19954;-71
2023/12/16 01:53:50;;;;;;;;;;;8.00;99.90;;;;;;2616115;54;19953;-70
2023/12/16 01:56:20;;;;;;;;;;;8.00;99.90;;;;;;2616151;54;19939;-72
2023/12/16 01:58:52;;;;;;;;;;;8.00;99.90;;;;;;2616228;54;20019;-72
2023/12/16 02:01:22;;;;;;;;;;;8.00;99.90;;;;;;2616048;54;19946;-71
2023/12/16 02:03:53;;;;;;;;;;;8.10;99.90;;;;;;2617055;54;19954;-71
2023/12/16 02:06:23;;;;;;;;;;;8.00;99.90;;;;;;2616303;47;19938;-71
2023/12/16 02:08:53;;;;;;;;;;;8.00;99.90;;;;;;2616217;54;20035;-71
2023/12/16 02:11:22;;;;;;;;;;;8.00;99.90;;;;;;2617033;47;19943;-71
2023/12/16 02:13:54;;;;;;;;;;;8.00;99.90;;;;;;2614972;54;19969;-72
2023/12/16 02:16:24;;;;;;;;;;;8.00;99.90;;;;;;2616465;47;19946;-71
2023/12/16 02:18:55;;;;;;;;;;;7.90;99.90;;;;;;2616036;54;19947;-71
2023/12/16 02:21:25;;;;;;;;;;;7.90;99.90;;;;;;2614924;54;19981;-71
2023/12/16 02:23:57;;;;;;;;;;;7.90;99.90;;;;;;2616392;53;19947;-71
2023/12/16 02:26:27;;;;;;;;;;;7.90;99.90;;;;;;2617991;39;20340;-71
2023/12/16 02:28:56;;;;;;;;;;;7.90;99.90;;;;;;2616289;54;19954;-71
2023/12/16 02:31:26;;;;;;;;;;;7.90;99.90;;;;;;2617488;54;20413;-71
2023/12/16 02:33:56;;;;;;;;;;;7.90;99.90;;;;;;2616973;54;19959;-71
2023/12/16 02:36:26;;;;;;;;;;;7.90;99.90;;;;;;2616546;47;20053;-72
2023/12/16 02:38:58;;;;;;;;;;;8.00;99.90;;;;;;2615725;54;19951;-71
2023/12/16 02:41:28;;;;;;;;;;;8.00;99.90;;;;;;2617342;54;19954;-71
2023/12/16 02:43:58;;;;;;;;;;;7.90;99.90;;;;;;2616058;39;20605;-71
2023/12/16 03:02:27;;;;;;;;;;;7.90;99.90;;;;;;2617234;39;20480;-71
2023/12/16 03:04:56;;;;;;;;;;;7.90;99.90;;;;;;2615584;54;20471;-71
2023/12/16 03:07:26;;;;;;;;;;;7.90;99.90;;;;;;2617694;47;19953;-71
2023/12/16 03:09:56;;;;;;;;;;;7.90;99.90;;;;;;2616358;46;19953;-70
2023/12/16 03:12:26;;;;;;;;;;;7.90;99.90;;;;;;2617083;54;19961;-71
2023/12/16 03:14:56;;;;;;;;;;;7.90;99.90;;;;;;2617347;54;19981;-70
2023/12/16 03:17:28;;;;;;;;;;;7.90;99.90;;;;;;2616000;54;19938;-71
2023/12/16 03:19:58;;;;;;;;;;;7.90;99.90;;;;;;2616401;54;19941;-70
2023/12/16 03:22:27;;;;;;;;;;;7.90;99.90;;;;;;2616824;54;19950;-71
2023/12/16 03:24:57;;;;;;;;;;;7.90;99.90;;;;;;2616345;54;19970;-71
2023/12/16 03:27:27;;;;;;;;;;;7.90;99.90;;;;;;2617309;47;19954;-72
2023/12/16 03:29:56;;;;;;;;;;;7.90;99.90;;;;;;2615856;54;20050;-70
2023/12/16 03:32:29;;;;;;;;;;;7.90;99.90;;;;;;2616066;54;19950;-70
2023/12/16 04:02:01;;;;;;;;;;;7.90;99.90;;;;;;2600162;54;20030;-77
2023/12/16 04:04:32;;;;;;;;;;;7.90;99.90;;;;;;2618187;47;19945;-76
2023/12/16 04:07:03;;;;;;;;;;;7.90;99.90;;;;;;2619215;47;19986;-76
2023/12/16 04:09:33;;;;;;;;;;;7.90;99.90;;;;;;2619576;54;20508;-77
2023/12/16 04:12:03;;;;;;;;;;;7.90;99.90;;;;;;2621151;39;20357;-78
2023/12/16 04:19:56;;;;;;;;;;;7.90;99.90;;;;;;2606988;54;20029;-76
2023/12/16 04:22:26;;;;;;;;;;;7.90;99.90;;;;;;2619357;47;19942;-76
2023/12/16 04:24:57;;;;;;;;;;;7.90;99.90;;;;;;2620389;54;20030;-77
2023/12/16 04:27:28;;;;;;;;;;;7.90;99.90;;;;;;2621537;47;19947;-77
2023/12/16 04:29:58;;;;;;;;;;;7.80;99.90;;;;;;2619733;47;20432;-76
2023/12/16 04:32:28;;;;;;;;;;;7.90;99.90;;;;;;2619145;47;19954;-77
2023/12/16 04:35:01;;;;;;;;;;;8.00;99.90;;;;;;2618685;47;19950;-76
2023/12/16 04:37:30;;;;;;;;;;;7.80;99.90;;;;;;2619274;54;19950;-76
2023/12/16 04:40:00;;;;;;;;;;;7.90;99.90;;;;;;2619719;39;20098;-76
2023/12/16 04:42:30;;;;;;;;;;;7.90;99.90;;;;;;2618639;47;20426;-77
2023/12/16 04:45:00;;;;;;;;;;;7.90;99.90;;;;;;2618828;47;19941;-76
2023/12/16 04:47:30;;;;;;;;;;;7.90;99.90;;;;;;2619361;54;20441;-76
2023/12/16 04:50:03;;;;;;;;;;;7.80;99.90;;;;;;2619030;54;19974;-76
2023/12/16 04:52:32;;;;;;;;;;;7.80;99.90;;;;;;2619013;54;19990;-77
2023/12/16 04:55:03;;;;;;;;;;;7.80;99.90;;;;;;2619567;39;20375;-76
2023/12/16 04:57:33;;;;;;;;;;;7.80;99.90;;;;;;2618850;47;19970;-76
2023/12/16 05:00:04;;;;;;;;;;;7.80;99.90;;;;;;2620480;47;19943;-76
2023/12/16 05:02:34;;;;;;;;;;;7.80;99.90;;;;;;2620340;54;19946;-76
2023/12/16 05:05:07;;;;;;;;;;;7.80;99.90;;;;;;2619234;54;19947;-76
2023/12/16 05:07:37;;;;;;;;;;;7.80;99.90;;;;;;2619103;47;19950;-76
2023/12/16 05:10:10;;;;;;;;;;;7.80;99.90;;;;;;2619743;47;20058;-76
2023/12/16 05:12:41;;;;;;;;;;;7.80;99.90;;;;;;2619449;47;19942;-76
2023/12/16 05:15:12;;;;;;;;;;;7.70;99.90;;;;;;2619145;47;20065;-76
2023/12/16 05:17:42;;;;;;;;;;;7.80;99.90;;;;;;2618956;47;19970;-77
2023/12/16 05:20:15;;;;;;;;;;;7.80;99.90;;;;;;2618963;47;19953;-76
2023/12/16 05:22:46;;;;;;;;;;;7.80;99.90;;;;;;2617993;47;19977;-78
2023/12/16 05:25:16;;;;;;;;;;;7.80;99.90;;;;;;2618783;50;20034;-77
2023/12/16 05:27:46;;;;;;;;;;;7.80;99.90;;;;;;2619191;47;19964;-77
2023/12/16 05:30:16;;;;;;;;;;;7.80;99.90;;;;;;2622804;47;19947;-77
2023/12/16 05:32:46;;;;;;;;;;;7.80;99.90;;;;;;2620075;39;20344;-77
2023/12/16 05:35:19;;;;;;;;;;;7.80;99.90;;;;;;2619597;47;19950;-76
2023/12/16 05:37:49;;;;;;;;;;;7.80;99.90;;;;;;2618812;54;19994;-76
2023/12/16 05:40:19;;;;;;;;;;;7.70;99.90;;;;;;2618402;47;19950;-76
2023/12/16 05:42:50;;;;;;;;;;;7.70;99.90;;;;;;2617994;47;19950;-77
2023/12/16 05:45:20;;;;;;;;;;;8.10;99.90;;;;;;2619814;39;20337;-77
2023/12/16 05:47:50;;;;;;;;;;;7.70;99.90;;;;;;2618613;47;19946;-76
2023/12/16 05:50:23;;;;;;;;;;;7.70;99.90;;;;;;2619010;51;19949;-75
2023/12/16 05:52:53;;;;;;;;;;;7.70;99.90;;;;;;2622493;47;19946;-76
2023/12/16 05:55:22;;;;;;;;;;;7.70;99.90;;;;;;2625158;51;19973;-77
2023/12/16 05:57:52;;;;;;;;;;;7.60;99.90;;;;;;2620576;54;19966;-77
2023/12/16 06:00:22;;;;;;;;;;;7.70;99.90;;;;;;2618553;47;19941;-77
2023/12/16 06:02:52;;;;;;;;;;;7.70;99.90;;;;;;2617618;47;19957;-77
2023/12/16 06:05:25;;;;;;;;;;;7.70;99.90;;;;;;2620249;39;20197;-77
2023/12/16 06:07:55;;;;;;;;;;;7.70;99.90;;;;;;2618287;54;19935;-77
2023/12/16 06:10:24;;;;;;;;;;;7.70;99.90;;;;;;2620425;54;19949;-77
2023/12/16 06:12:55;;;;;;;;;;;7.70;99.90;;;;;;2618572;47;19946;-77
2023/12/16 06:15:25;;;;;;;;;;;7.60;99.90;;;;;;2619306;54;19954;-78
2023/12/16 06:17:54;;;;;;;;;;;7.60;99.90;;;;;;2618809;47;19953;-77
2023/12/16 06:20:27;;;;;;;;;;;7.60;99.90;;;;;;2618436;54;19947;-77
2023/12/16 06:22:57;;;;;;;;;;;7.70;99.90;;;;;;2618312;47;20002;-78
2023/12/16 06:25:27;;;;;;;;;;;7.60;99.90;;;;;;2618370;47;20009;-77
2023/12/16 06:27:57;;;;;;;;;;;7.60;99.90;;;;;;2619103;54;19950;-77
2023/12/16 06:30:26;;;;;;;;;;;7.60;99.90;;;;;;2619493;47;19946;-77
2023/12/16 06:32:56;;;;;;;;;;;7.60;99.90;;;;;;2622116;51;19934;-77
2023/12/16 06:35:29;;;;;;;;;;;7.60;99.90;;;;;;2619398;47;19934;-76
2023/12/16 06:37:59;;;;;;;;;;;7.60;99.90;;;;;;2618906;51;20059;-76
2023/12/16 06:40:31;;;;;;;;;;;7.80;99.90;;;;;;2618946;47;19973;-77
2023/12/16 06:43:01;;;;;;;;;;;7.60;99.90;;;;;;2618415;47;19946;-77
2023/12/16 06:45:34;;;;;;;;;;;7.70;99.90;;;;;;2618967;54;20059;-76
2023/12/16 06:48:05;;;;;;;;;;;7.70;99.90;;;;;;2619385;54;19946;-76
2023/12/16 06:50:37;;;;;;;;;;;7.60;99.90;;;;;;2619645;47;19943;-76
2023/12/16 06:53:07;;;;;;;;;;;7.70;99.90;;;;;;2618822;47;19959;-78
2023/12/16 06:55:37;;;;;;;;;;;7.60;99.90;;;;;;2620721;54;19954;-76
2023/12/16 06:58:07;;;;;;;;;;;7.80;99.90;;;;;;2623706;39;20363;-79
2023/12/16 07:00:37;;;;;;;;;;;7.60;99.90;;;;;;2627812;47;19926;-82
2023/12/16 07:03:07;;;;;;;;;;;7.60;99.90;;;;;;2629610;47;19927;-83
2023/12/16 07:05:40;;;;;;;;;;;7.60;99.90;;;;;;2629505;47;19927;-84
2023/12/16 07:08:10;;;;;;;;;;;8.10;99.90;;;;;;2632677;39;20424;-82
2023/12/16 07:10:40;;;;;;;;;;;8.80;99.90;;;;;;2629967;54;20305;-81
2023/12/16 07:13:10;;;;;;;;;;;7.70;99.90;;;;;;2629518;54;19962;-80
2023/12/16 07:15:40;;;;;;;;;;;7.70;99.90;;;;;;2630873;31;20449;-82
2023/12/16 07:18:10;;;;;;;;;;;8.10;99.90;;;;;;2629581;54;19943;-82
2023/12/16 07:20:43;;;;;;;;;;;7.70;99.90;;;;;;2630358;47;19966;-82
2023/12/16 07:23:12;;;;;;;;;;;8.00;99.90;;;;;;2630609;54;19974;-82
2023/12/16 07:25:42;;;;;;;;;;;7.70;99.90;;;;;;2629799;47;19927;-83
2023/12/16 07:28:12;;;;;;;;;;;8.40;99.90;;;;;;2628885;47;19995;-81
2023/12/16 07:30:42;;;;;;;;;;;7.70;99.90;;;;;;2630713;39;20130;-81
2023/12/16 07:33:12;;;;;;;;;;;9.10;99.90;;;;;;2631033;54;19954;-81
2023/12/16 07:35:45;;;;;;;;;;;6.20;99.90;;;;;;2630857;47;19950;-83
2023/12/16 07:38:15;;;;;;;;;;;7.70;99.90;;;;;;2631045;47;19949;-84
2023/12/16 07:40:49;;;;;;;;;;;7.70;99.90;;;;;;2630606;47;19941;-82
2023/12/16 07:43:19;;;;;;;;;;;7.70;99.90;;;;;;2630779;46;19966;-83
2023/12/16 07:45:49;;;;;;;;;;;7.70;99.90;;;;;;2637999;39;20546;-83
2023/12/16 07:48:19;;;;;;;;;;;7.80;99.90;;;;;;2630830;54;19943;-83
2023/12/16 07:50:53;;;;;;;;;;;7.70;99.90;;;;;;2630724;47;20046;-83
2023/12/16 07:53:24;;;;;;;;;;;7.70;99.90;;;;;;2634330;39;20409;-83
2023/12/16 07:55:53;;;;;;;;;;;7.80;99.90;;;;;;2637597;39;20424;-84
2023/12/16 07:58:23;;;;;;;;;;;7.80;99.90;;;;;;2629815;54;19949;-83
2023/12/16 08:00:53;;;;;;;;;;;7.80;99.90;;;;;;2629849;47;19942;-82
2023/12/16 08:03:26;;;;;;;;;;;7.80;99.90;;;;;;2629795;54;19969;-84
2023/12/16 08:05:59;;;;;;;;;;;7.80;99.90;;;;;;2631972;39;20497;-84
2023/12/16 08:08:29;;;;;;;;;;;7.80;99.90;;;;;;2629721;47;19964;-83
2023/12/16 08:10:59;;;;;;;;;;;8.70;99.90;;;;;;2629756;54;20578;-82
2023/12/16 08:13:29;;;;;;;;;;;7.80;99.90;;;;;;2628412;46;20507;-80
2023/12/16 08:15:59;;;;;;;;;;;7.70;99.90;;;;;;2627109;47;19957;-83
2023/12/16 08:18:30;;;;;;;;;;;7.70;99.90;;;;;;2628965;54;19926;-79
2023/12/16 08:21:03;;;;;;;;;;;7.70;99.90;;;;;;2629697;47;19934;-83
2023/12/16 08:23:33;;;;;;;;;;;7.80;99.90;;;;;;2629628;47;19946;-82
2023/12/16 08:26:03;;;;;;;;;;;7.70;99.90;;;;;;2629729;46;20653;-82
2023/12/16 08:28:33;;;;;;;;;;;7.80;99.90;;;;;;2628044;54;19947;-80
2023/12/16 08:31:03;;;;;;;;;;;7.80;99.90;;;;;;2627128;47;19969;-82
2023/12/16 08:33:34;;;;;;;;;;;7.80;99.90;;;;;;2628454;54;19950;-80
2023/12/16 08:36:07;;;;;;;;;;;7.80;99.90;;;;;;2629855;47;19927;-78
2023/12/16 08:38:38;;;;;;;;;;;7.80;99.90;;;;;;2629484;47;19957;-79
2023/12/16 08:41:09;;;;;;;;;;;7.80;99.90;;;;;;2629708;47;19994;-80
2023/12/16 08:43:41;;;;;;;;;;;7.80;99.90;;;;;;2629339;47;19951;-81
2023/12/16 08:46:11;;;;;;;;;;;7.90;99.90;;;;;;2629656;47;19943;-83
2023/12/16 08:48:42;;;;;;;;;;;7.90;99.90;;;;;;2629490;47;19957;-83
2023/12/16 08:51:15;;;;;;;;;;;7.90;99.90;;;;;;2629921;47;19942;-82
2023/12/16 08:53:45;;;;;;;;;;;8.80;99.90;;;;;;2629588;54;20538;-83
2023/12/16 08:56:17;;;;;;;;;;;8.00;99.90;;;;;;2629635;54;20741;-83
2023/12/16 08:58:47;;;;;;;;;;;8.00;99.90;;;;;;2629418;47;19926;-84
2023/12/16 09:01:17;;;;;;;;;;;8.00;99.90;;;;;;2629611;47;20532;-83
2023/12/16 09:03:48;;;;;;;;;;;8.00;99.90;;;;;;2629466;47;19927;-82
2023/12/16 09:06:20;;;;;;;;;;;8.10;99.90;;;;;;2629720;47;19927;-83
2023/12/16 09:08:50;;;;;;;;;;;8.10;99.90;;;;;;2630306;54;19953;-82
2023/12/16 09:11:20;;;;;;;;;;;8.10;99.90;;;;;;2630779;54;19934;-83
2023/12/16 09:13:50;;;;;;;;;;;8.10;99.90;;;;;;2629312;54;19939;-81
2023/12/16 09:16:20;;;;;;;;;;;8.10;99.90;;;;;;2633246;39;20391;-81
2023/12/16 09:18:50;;;;;;;;;;;8.10;99.90;;;;;;2629778;54;19946;-81
2023/12/16 09:21:25;;;;;;;;;;;8.10;99.90;;;;;;2630128;47;19949;-81
2023/12/16 09:23:54;;;;;;;;;;;8.20;99.90;;;;;;2628816;47;19939;-72
2023/12/16 09:26:24;;;;;;;;;;;8.20;99.90;;;;;;2615939;54;19946;-74
2023/12/16 09:28:55;;;;;;;;;;;8.30;99.90;;;;;;2614769;47;19954;-74
2023/12/16 09:31:29;;;;;;;;;;;8.30;99.90;;;;;;2613839;47;20460;-75
2023/12/16 09:34:01;;;;;;;;;;;8.30;99.90;;;;;;2617102;47;19939;-72
2023/12/16 09:36:35;;;;;;;;;;;8.30;99.90;;;;;;2617537;54;19947;-73
2023/12/16 09:39:05;;;;;;;;;;;8.40;99.90;;;;;;2614908;54;20046;-75
2023/12/16 09:41:44;;;;;;;;;;;8.20;99.90;;;;;;2613175;47;19950;-73
2023/12/16 09:44:16;;;;;;;;;;;8.40;99.90;;;;;;2618439;47;19943;-73
2023/12/16 09:46:46;;;;;;;;;;;8.40;99.90;;;;;;2617191;47;19947;-73
2023/12/16 09:49:16;;;;;;;;;;;9.60;99.90;;;;;;2617879;54;19947;-73
2023/12/16 09:51:48;;;;;;;;;;;8.50;99.90;;;;;;2616718;47;19953;-73
2023/12/16 09:54:18;;;;;;;;;;;8.50;99.90;;;;;;2616845;54;19957;-73
2023/12/16 09:56:53;;;;;;;;;;;8.50;99.90;;;;;;2617290;54;19942;-74
2023/12/16 09:59:24;;;;;;;;;;;8.60;99.90;;;;;;2616215;54;19946;-73
2023/12/16 10:01:56;;;;;;;;;;;8.50;99.90;;;;;;2614552;47;19950;-72
2023/12/16 10:04:27;;;;;;;;;;;8.90;99.90;;;;;;2614779;54;19969;-73
2023/12/16 10:07:00;;;;;;;;;;;8.50;99.90;;;;;;2616786;47;19947;-74
2023/12/16 10:09:30;;;;;;;;;;;8.50;99.90;;;;;;2614339;47;19950;-74
2023/12/16 10:11:59;;;;;;;;;;;7.80;99.90;;;;;;2616148;54;19959;-73
2023/12/16 10:14:46;;;;;;;;;;;8.50;99.90;;;;;;2616225;47;19942;-73
2023/12/16 10:17:17;;;;;;;;;;;8.50;99.90;;;;;;2617061;47;19961;-73
2023/12/16 10:19:48;;;;;;;;;;;8.50;99.90;;;;;;2616921;54;19946;-72
2023/12/16 10:22:20;;;;;;;;;;;8.60;99.90;;;;;;2620672;54;19946;-72
2023/12/16 10:24:50;;;;;;;;;;;8.60;99.90;;;;;;2620532;50;19949;-73
2023/12/16 10:27:23;;;;;;;;;;;8.60;99.90;;;;;;2621763;47;19943;-72
2023/12/16 10:29:52;;;;;;;;;;;8.60;99.90;;;;;;2619957;54;19946;-73
2023/12/16 10:32:39;;;;;;;;;;;8.60;99.90;;;;;;2617740;47;20679;-73
2023/12/16 10:35:10;;;;;;;;;;;8.60;99.90;;;;;;2617609;54;19942;-73
2023/12/16 10:37:49;;;;;;;;;;;8.60;99.90;;;;;;2616551;54;19945;-73
2023/12/16 10:40:26;;;;;;;;;;;8.60;99.90;;;;;;2617735;39;20378;-73
2023/12/16 10:42:55;;;;;;;;;;;8.50;99.90;;;;;;2616745;54;19958;-73
2023/12/16 10:45:25;;;;;;;;;;;8.60;99.90;;;;;;2617728;54;19954;-73
2023/12/16 10:47:57;;;;;;;;;;;8.60;99.90;;;;;;2617252;54;19954;-73
2023/12/16 10:50:28;;;;;;;;;;;8.60;99.90;;;;;;2617924;54;19946;-74
2023/12/16 10:53:02;;;;;;;;;;;8.60;99.90;;;;;;2618034;39;20005;-73
2023/12/16 10:55:32;;;;;;;;;;;8.70;99.90;;;;;;2617547;54;19953;-73
2023/12/16 10:58:09;;;;;;;;;;;8.70;99.90;;;;;;2618041;54;19958;-72
2023/12/16 11:00:40;;;;;;;;;;;8.70;99.90;;;;;;2617886;47;20465;-73
2023/12/16 11:03:13;;;;;;;;;;;8.80;99.90;;;;;;2617453;54;20054;-73
2023/12/16 11:05:52;;;;;;;;;;;8.80;99.90;;;;;;2617945;54;19996;-72
2023/12/16 11:08:26;;;;;;;;;;;8.80;99.90;;;;;;2617305;54;19947;-73
2023/12/16 11:10:57;;;;;;;;;;;8.90;99.90;;;;;;2616108;47;19946;-73
2023/12/16 11:13:27;;;;;;;;;;;8.90;99.90;;;;;;2616684;54;19946;-74
2023/12/16 11:15:58;;;;;;;;;;;8.90;99.90;;;;;;2616497;47;19973;-73
2023/12/16 11:18:30;;;;;;;;;;;9.00;99.90;;;;;;2617877;39;20360;-73
2023/12/16 11:21:04;;;;;;;;;;;9.00;99.90;;;;;;2616511;47;19939;-73
2023/12/16 11:23:45;;;;;;;;;;;8.90;99.90;;;;;;2617141;46;19950;-73
2023/12/16 11:26:15;;;;;;;;;;;9.00;99.90;;;;;;2614345;54;20067;-74
2023/12/16 11:28:45;;;;;;;;;;;9.00;99.90;;;;;;2617218;54;20433;-73
2023/12/16 11:31:16;;;;;;;;;;;9.00;99.90;;;;;;2617335;54;19947;-73
2023/12/16 11:33:46;;;;;;;;;;;9.10;99.90;;;;;;2616783;47;19970;-72
2023/12/16 11:36:19;;;;;;;;;;;9.10;99.90;;;;;;2617735;54;19938;-73
2023/12/16 11:38:52;;;;;;;;;;;8.70;99.90;;;;;;2617281;47;19939;-72
2023/12/16 11:41:37;;;;;;;;;;;8.20;99.90;;;;;;2617144;47;19939;-73
2023/12/16 11:44:08;;;;;;;;;;;9.10;99.90;;;;;;2616375;54;20034;-73
2023/12/16 11:46:40;;;;;;;;;;;9.20;99.90;;;;;;2617145;54;19935;-73
2023/12/16 11:49:11;;;;;;;;;;;9.20;99.90;;;;;;2617681;54;20434;-72
2023/12/16 11:51:41;;;;;;;;;;;9.20;99.90;;;;;;2618004;47;19950;-73
2023/12/16 11:54:14;;;;;;;;;;;9.20;99.90;;;;;;2616903;54;20490;-71
2023/12/16 11:56:44;;;;;;;;;;;9.20;99.90;;;;;;2613901;47;19961;-62
2023/12/16 11:59:13;;;;;;;;;;;9.20;99.90;;;;;;2616499;54;19942;-72
2023/12/16 12:01:43;;;;;;;;;;;9.30;99.90;;;;;;2617181;47;19961;-73
2023/12/16 12:04:13;;;;;;;;;;;9.30;99.90;;;;;;2616456;54;20066;-72
2023/12/16 12:06:43;;;;;;;;;;;9.30;99.90;;;;;;2616734;54;19950;-74
2023/12/16 12:09:15;;;;;;;;;;;9.30;99.90;;;;;;2616504;47;19950;-73
2023/12/16 12:11:45;;;;;;;;;;;9.30;99.90;;;;;;2618408;39;20334;-73
2023/12/16 12:14:14;;;;;;;;;;;9.70;99.90;;;;;;2617151;47;19938;-71
2023/12/16 12:16:44;;;;;;;;;;;9.30;99.90;;;;;;2617033;46;19969;-70
2023/12/16 12:19:13;;;;;;;;;;;9.30;99.90;;;;;;2619435;46;19986;-71
2023/12/16 12:21:44;;;;;;;;;;;9.30;99.90;;;;;;2620617;54;20456;-71
2023/12/16 12:24:17;;;;;;;;;;;9.40;99.90;;;;;;2616526;54;20081;-69
2023/12/16 12:26:47;;;;;;;;;;;9.40;99.90;;;;;;2616775;54;19953;-73
2023/12/16 12:29:16;;;;;;;;;;;9.30;99.90;;;;;;2617467;39;20346;-71
2023/12/16 12:31:46;;;;;;;;;;;9.40;99.90;;;;;;2616953;54;19954;-72
2023/12/16 12:34:20;;;;;;;;;;;9.30;99.90;;;;;;2617664;54;19969;-71
2023/12/16 12:36:56;;;;;;;;;;;9.30;99.90;;;;;;2617408;54;19971;-70
2023/12/16 12:39:28;;;;;;;;;;;9.20;99.90;;;;;;2617665;54;19954;-72
2023/12/16 12:42:02;;;;;;;;;;;9.30;99.90;;;;;;2617681;39;20338;-72
2023/12/16 12:44:35;;;;;;;;;;;9.20;99.90;;;;;;2615697;54;19953;-71
2023/12/16 12:47:05;;;;;;;;;;;9.30;99.90;;;;;;2614742;54;19982;-71
2023/12/16 12:49:35;;;;;;;;;;;9.30;99.90;;;;;;2616334;47;19958;-71
2023/12/16 12:52:05;;;;;;;;;;;9.30;99.90;;;;;;2615874;51;20959;-74
2023/12/16 12:54:47;;;;;;;;;;;9.30;99.90;;;;;;2616240;47;19946;-72
2023/12/16 12:57:21;;;;;;;;;;;9.40;99.90;;;;;;2616819;54;19947;-74
2023/12/16 12:59:51;;;;;;;;;;;9.40;99.90;;;;;;2617819;47;19947;-75
2023/12/16 13:02:32;;;;;;;;;;;9.50;99.90;;;;;;2617226;54;19947;-72
2023/12/16 13:05:02;;;;;;;;;;;9.60;99.90;;;;;;2615354;47;20805;-73
2023/12/16 13:07:32;;;;;;;;;;;8.50;99.90;;;;;;2614898;54;19951;-73
2023/12/16 13:10:04;;;;;;;;;;;9.70;99.90;;;;;;2613977;54;19950;-74
2023/12/16 13:12:34;;;;;;;;;;;9.70;99.90;;;;;;2613193;54;19950;-74
2023/12/16 13:15:04;;;;;;;;;;;9.80;99.90;;;;;;2613392;54;19946;-73
2023/12/16 13:17:33;;;;;;;;;;;9.80;99.90;;;;;;2615340;47;19939;-74
2023/12/16 13:20:03;;;;;;;;;;;9.90;99.90;;;;;;2615097;53;19942;-72
2023/12/16 13:22:36;;;;;;;;;;;10.00;99.90;;;;;;2615947;54;19946;-74
2023/12/16 13:25:11;;;;;;;;;;;10.00;99.90;;;;;;2615601;39;20318;-74
2023/12/16 13:27:41;;;;;;;;;;;10.10;99.90;;;;;;2613883;54;19969;-75
2023/12/16 13:30:11;;;;;;;;;;;10.10;99.90;;;;;;2614597;47;19954;-75
2023/12/16 13:32:43;;;;;;;;;;;10.10;99.90;;;;;;2613939;54;19947;-74
2023/12/16 13:35:13;;;;;;;;;;;10.10;99.90;;;;;;2614789;47;20426;-74
2023/12/16 13:37:43;;;;;;;;;;;10.00;99.90;;;;;;2615662;47;19958;-73
2023/12/16 13:40:15;;;;;;;;;;;10.00;99.90;;;;;;2613823;54;19951;-73
2023/12/16 13:42:45;;;;;;;;;;;10.00;99.90;;;;;;2616032;39;20322;-73
2023/12/16 13:45:15;;;;;;;;;;;10.00;99.90;;;;;;2615457;54;19939;-74
2023/12/16 13:47:45;;;;;;;;;;;9.90;99.90;;;;;;2616294;49;19988;-73
2023/12/16 13:50:14;;;;;;;;;;;9.90;99.90;;;;;;2615285;47;19942;-73
2023/12/16 13:52:44;;;;;;;;;;;9.80;99.90;;;;;;2615871;54;19935;-73
2023/12/16 13:55:16;;;;;;;;;;;9.80;99.90;;;;;;2616223;54;19942;-74
2023/12/16 13:57:46;;;;;;;;;;;9.80;99.90;;;;;;2616135;54;19946;-73
2023/12/16 14:00:17;;;;;;;;;;;9.70;99.90;;;;;;2616858;54;19946;-73
2023/12/16 14:02:46;;;;;;;;;;;9.70;99.90;;;;;;2616645;54;20030;-72
2023/12/16 14:05:16;;;;;;;;;;;9.70;99.90;;;;;;2616244;54;19945;-73
2023/12/16 14:07:46;;;;;;;;;;;9.70;99.90;;;;;;2613977;39;20354;-74
2023/12/16 14:10:18;;;;;;;;;;;9.70;99.90;;;;;;2612474;47;19946;-72
2023/12/16 14:12:48;;;;;;;;;;;9.60;99.90;;;;;;2618231;54;19953;-74
2023/12/16 14:15:17;;;;;;;;;;;9.60;99.90;;;;;;2617752;39;20472;-74
2023/12/16 14:17:47;;;;;;;;;;;9.60;99.90;;;;;;2616253;47;20029;-62
2023/12/16 14:20:17;;;;;;;;;;;9.60;99.90;;;;;;2616326;54;19994;-63
2023/12/16 14:22:49;;;;;;;;;;;9.60;99.90;;;;;;2617025;39;20360;-61
2023/12/16 14:25:22;;;;;;;;;;;9.60;99.90;;;;;;2616015;54;19946;-61
2023/12/16 14:27:52;;;;;;;;;;;9.60;99.90;;;;;;2616701;54;19939;-61
2023/12/16 14:30:23;;;;;;;;;;;9.60;99.90;;;;;;2615360;47;19959;-62
2023/12/16 14:32:53;;;;;;;;;;;9.50;99.90;;;;;;2615842;54;19939;-61
2023/12/16 14:35:23;;;;;;;;;;;9.50;99.90;;;;;;2616306;54;20039;-60
2023/12/16 14:37:52;;;;;;;;;;;9.60;99.90;;;;;;2615121;47;19958;-71
2023/12/16 14:40:25;;;;;;;;;;;9.60;99.90;;;;;;2614858;54;19938;-72
2023/12/16 14:42:55;;;;;;;;;;;9.60;99.90;;;;;;2616751;54;20484;-71
2023/12/16 14:45:25;;;;;;;;;;;9.60;99.90;;;;;;2616058;47;19953;-72
2023/12/16 14:47:54;;;;;;;;;;;9.60;99.90;;;;;;2616910;54;19952;-72
2023/12/16 14:50:24;;;;;;;;;;;9.50;99.90;;;;;;2615828;54;19939;-72
2023/12/16 14:52:54;;;;;;;;;;;9.60;99.90;;;;;;2616631;54;19939;-72
2023/12/16 14:55:26;;;;;;;;;;;9.60;99.90;;;;;;2615596;54;19954;-71
2023/12/16 14:57:56;;;;;;;;;;;9.50;99.90;;;;;;2616095;54;19945;-73
2023/12/16 15:00:29;;;;;;;;;;;9.50;99.90;;;;;;2615373;54;19977;-72
2023/12/16 15:02:59;;;;;;;;;;;9.50;99.90;;;;;;2616494;54;19935;-73
2023/12/16 15:05:28;;;;;;;;;;;9.40;99.90;;;;;;2616166;47;19946;-72
2023/12/16 15:07:59;;;;;;;;;;;9.40;99.90;;;;;;2616379;54;20008;-74
2023/12/16 15:10:31;;;;;;;;;;;9.40;99.90;;;;;;2615041;54;19946;-74
2023/12/16 15:13:04;;;;;;;;;;;9.40;99.90;;;;;;2615762;54;19947;-73
2023/12/16 15:15:38;;;;;;;;;;;9.30;99.90;;;;;;2617436;39;20505;-74
2023/12/16 15:18:08;;;;;;;;;;;9.30;99.90;;;;;;2617077;54;19942;-74
2023/12/16 15:20:38;;;;;;;;;;;9.20;99.90;;;;;;2618282;39;20361;-74
2023/12/16 15:23:08;;;;;;;;;;;9.20;99.90;;;;;;2616305;54;19942;-75
2023/12/16 15:25:40;;;;;;;;;;;9.20;99.90;;;;;;2617189;39;20396;-76
2023/12/16 15:28:10;;;;;;;;;;;9.10;99.90;;;;;;2617438;54;19962;-73
2023/12/16 15:30:39;;;;;;;;;;;9.10;99.90;;;;;;2616224;54;19946;-73
2023/12/16 15:33:09;;;;;;;;;;;9.00;99.90;;;;;;2616669;46;19935;-74
2023/12/16 15:35:39;;;;;;;;;;;9.00;99.90;;;;;;2613448;39;21471;-74
2023/12/16 15:38:08;;;;;;;;;;;8.90;99.90;;;;;;2615714;47;20474;-74
2023/12/16 15:40:42;;;;;;;;;;;8.90;99.90;;;;;;2616242;54;19942;-74
2023/12/16 15:43:12;;;;;;;;;;;8.80;99.90;;;;;;2617038;54;19966;-75
2023/12/16 15:45:42;;;;;;;;;;;8.70;99.90;;;;;;2617205;47;19950;-75
2023/12/16 15:48:11;;;;;;;;;;;8.80;99.90;;;;;;2616086;47;20088;-77
2023/12/16 15:50:41;;;;;;;;;;;8.70;99.90;;;;;;2617269;47;19964;-74
2023/12/16 15:53:11;;;;;;;;;;;8.70;99.90;;;;;;2616802;54;19954;-73
2023/12/16 15:55:43;;;;;;;;;;;8.60;99.90;;;;;;2615471;47;19957;-73
2023/12/16 15:58:13;;;;;;;;;;;8.60;99.90;;;;;;2616294;54;19939;-74
2023/12/16 16:00:42;;;;;;;;;;;8.50;99.90;;;;;;2615507;47;19950;-75
2023/12/16 16:03:12;;;;;;;;;;;8.50;99.90;;;;;;2616022;47;19958;-73
2023/12/16 16:05:42;;;;;;;;;;;8.50;99.90;;;;;;2620241;47;19947;-76